Atlantida — UALU — position and weather

sailwx.info

Track history (hours):
 
Tides and Currents Weather Stations Pressure Air Temp Water Temp Dewpoint Dewpoint Depression Visibility Wind Speed Wind Dir Waves Ship Positions

Atlantida

Last reported at 2017-Dec-14 08:08 UTC. Time now 2018-Jan-22 10:32 UTC.
Position N 54°40' E 019°49'.
Warning: this ship's position is 39 days out of date.

Length 62 m; draft 6 m.

Type: Fishing. MMSI: 273242100.

Date/timePositionNaut miles runAvg speedWind from/ knotsBaromVisibWave heightAir tempDewpointWater temp
2017-Dec-14 08:08N 54°40' E 019°49'1 7.5
2017-Dec-14 08:00N 54°40' E 019°48'2 2.6
2017-Dec-14 07:11N 54°39' E 019°46'0 0.1
2017-Dec-14 06:50N 54°39' E 019°46'0 0.0
2017-Dec-14 05:47N 54°39' E 019°46'0 0.1
2017-Dec-14 05:29N 54°39' E 019°46'0 0.0
2017-Dec-14 04:56N 54°39' E 019°46'0 0.0
2017-Dec-14 04:29N 54°39' E 019°46'0 0.0
2017-Dec-14 03:59N 54°39' E 019°46'0 0.0
2017-Dec-14 03:23N 54°39' E 019°46'0 0.0
2017-Dec-14 02:56N 54°39' E 019°46'0 0.0
2017-Dec-14 02:11N 54°39' E 019°46'0 0.0
2017-Dec-14 01:56N 54°39' E 019°46'0 0.1
2017-Dec-14 01:29N 54°39' E 019°46'0 0.0
2017-Dec-14 00:50N 54°39' E 019°46'0 0.0
2017-Dec-14 00:26N 54°39' E 019°46'0 0.0
2017-Dec-13 23:56N 54°39' E 019°46'0 0.1
2017-Dec-13 21:35N 54°39' E 019°47'1 6.1
2017-Dec-13 21:29N 54°39' E 019°46'4 8.0
2017-Dec-13 21:00N 54°41' E 019°40'5 9.6
2017-Dec-13 20:30N 54°44' E 019°34'510.1
2017-Dec-13 20:00N 54°46' E 019°26'510.1
2017-Dec-13 19:30N 54°49' E 019°18'5 9.9
2017-Dec-13 19:00N 54°51' E 019°10'5 9.5
2017-Dec-13 18:30N 54°53' E 019°03'5 9.5
2017-Dec-13 18:00N 54°55' E 018°55'510.3
2017-Dec-13 17:30N 54°56' E 018°47'510.8
2017-Dec-13 17:00N 54°58' E 018°38'510.8
2017-Dec-13 16:30N 54°59' E 018°28'611.4
2017-Dec-13 16:00N 54°58' E 018°18'611.3
2017-Dec-13 15:30N 54°57' E 018°09'611.6
2017-Dec-13 15:00N 54°56' E 017°59'176 7.6
2017-Dec-12 15:55N 55°14' E 012°52'3 7.9
2017-Dec-12 15:30N 55°15' E 012°47'4 8.0
2017-Dec-12 15:00N 55°17' E 012°41'3 6.7
2017-Dec-12 14:30N 55°20' E 012°37'4 8.2
2017-Dec-12 14:00N 55°24' E 012°39'4 8.5
2017-Dec-12 13:30N 55°28' E 012°40'4 8.5
2017-Dec-12 13:00N 55°32' E 012°42'510.8
2017-Dec-12 12:30N 55°37' E 012°42'510.7
2017-Dec-12 12:00N 55°43' E 012°41'510.7
2017-Dec-12 11:30N 55°48' E 012°40'5 9.0
2017-Dec-12 11:00N 55°52' E 012°38'5 9.0
2017-Dec-12 10:30N 55°57' E 012°38'5 9.2
2017-Dec-12 10:00N 56°01' E 012°38'4 8.3
2017-Dec-12 09:30N 56°05' E 012°35'4 8.9
2017-Dec-12 09:00N 56°08' E 012°29'4 8.8
2017-Dec-12 08:30N 56°10' E 012°22'5 9.1
2017-Dec-12 08:00N 56°13' E 012°15'63 8.8
2017-Dec-12 00:48N 57°12' E 011°34'3 9.2
2017-Dec-12 00:30N 57°15' E 011°32'5 9.5
2017-Dec-12 00:00N 57°19' E 011°30'5 9.4
2017-Dec-11 23:30N 57°24' E 011°27'5 9.1
2017-Dec-11 23:00N 57°28' E 011°24'5 9.3
2017-Dec-11 22:30N 57°31' E 011°18'5 9.1
2017-Dec-11 22:00N 57°34' E 011°11'5 9.1
2017-Dec-11 21:30N 57°37' E 011°05'5 9.2
2017-Dec-11 21:00N 57°40' E 010°59'5 9.1
2017-Dec-11 20:30N 57°43' E 010°52'5 9.2
2017-Dec-11 20:00N 57°47' E 010°46'4 8.0
2017-Dec-11 19:30N 57°48' E 010°39'5 9.1
2017-Dec-11 19:00N 57°48' E 010°30'112 8.7
2017-Dec-11 06:11N 56°45' E 007°39'210.3
2017-Dec-11 06:00N 56°44' E 007°37'611.1
2017-Dec-11 05:30N 56°39' E 007°31'3 6.2
2017-Dec-11 04:59N 56°36' E 007°28'510.0
2017-Dec-11 04:29N 56°32' E 007°24'511.1
2017-Dec-11 04:00N 56°27' E 007°18'33310.1
2017-Dec-09 19:06N 51°41' E 002°31'112.2
2017-Dec-09 19:00N 51°40' E 002°30'712.3
2017-Dec-09 18:24N 51°34' E 002°22'612.3
2017-Dec-09 17:55N 51°29' E 002°16'512.3
2017-Dec-09 17:30N 51°25' E 002°12'612.3
2017-Dec-09 17:00N 51°20' E 002°08'612.3
2017-Dec-09 16:30N 51°14' E 002°03'612.9
2017-Dec-09 16:00N 51°11' E 001°54'613.0
2017-Dec-09 15:30N 51°08' E 001°45'612.8
2017-Dec-09 15:00N 51°03' E 001°38'612.3
2017-Dec-09 14:30N 50°59' E 001°31'15610.3
2017-Dec-08 23:22N 49°55' W 002°12'613.3
2017-Dec-08 22:53N 49°53' W 002°21'117 8.1
2017-Dec-08 08:30N 48°59' W 004°60'510.9
2017-Dec-08 08:00N 48°56' W 005°07'1011.3
2017-Dec-08 07:07N 48°51' W 005°20'211.5
2017-Dec-08 06:59N 48°50' W 005°22'511.4
2017-Dec-08 06:30N 48°47' W 005°29'910.5
2017-Dec-08 05:38N 48°41' W 005°38'  
Track history (hours):
 
Tides and Currents Weather Stations Pressure Air Temp Water Temp Dewpoint Dewpoint Depression Visibility Wind Speed Wind Dir Waves Ship Positions

Atlantida

Last reported at 2017-Dec-14 08:08 UTC. Time now 2018-Jan-22 10:32 UTC.
Position N 54°40' E 019°49'.
Warning: this ship's position is 39 days out of date.

Length 62 m; draft 6 m.

Type: Fishing. MMSI: 273242100.

Date/timePositionNaut miles runAvg speedWind from/ knotsBaromVisibWave heightAir tempDewpointWater temp
2017-Dec-14 08:08N 54°40' E 019°49'1 7.5
2017-Dec-14 08:00N 54°40' E 019°48'2 2.6
2017-Dec-14 07:11N 54°39' E 019°46'0 0.1
2017-Dec-14 06:50N 54°39' E 019°46'0 0.0
2017-Dec-14 05:47N 54°39' E 019°46'0 0.1
2017-Dec-14 05:29N 54°39' E 019°46'0 0.0
2017-Dec-14 04:56N 54°39' E 019°46'0 0.0
2017-Dec-14 04:29N 54°39' E 019°46'0 0.0
2017-Dec-14 03:59N 54°39' E 019°46'0 0.0
2017-Dec-14 03:23N 54°39' E 019°46'0 0.0
2017-Dec-14 02:56N 54°39' E 019°46'0 0.0
2017-Dec-14 02:11N 54°39' E 019°46'0 0.0
2017-Dec-14 01:56N 54°39' E 019°46'0 0.1
2017-Dec-14 01:29N 54°39' E 019°46'0 0.0
2017-Dec-14 00:50N 54°39' E 019°46'0 0.0
2017-Dec-14 00:26N 54°39' E 019°46'0 0.0
2017-Dec-13 23:56N 54°39' E 019°46'0 0.1
2017-Dec-13 21:35N 54°39' E 019°47'1 6.1
2017-Dec-13 21:29N 54°39' E 019°46'4 8.0
2017-Dec-13 21:00N 54°41' E 019°40'5 9.6
2017-Dec-13 20:30N 54°44' E 019°34'510.1
2017-Dec-13 20:00N 54°46' E 019°26'510.1
2017-Dec-13 19:30N 54°49' E 019°18'5 9.9
2017-Dec-13 19:00N 54°51' E 019°10'5 9.5
2017-Dec-13 18:30N 54°53' E 019°03'5 9.5
2017-Dec-13 18:00N 54°55' E 018°55'510.3
2017-Dec-13 17:30N 54°56' E 018°47'510.8
2017-Dec-13 17:00N 54°58' E 018°38'510.8
2017-Dec-13 16:30N 54°59' E 018°28'611.4
2017-Dec-13 16:00N 54°58' E 018°18'611.3
2017-Dec-13 15:30N 54°57' E 018°09'611.6
2017-Dec-13 15:00N 54°56' E 017°59'176 7.6
2017-Dec-12 15:55N 55°14' E 012°52'3 7.9
2017-Dec-12 15:30N 55°15' E 012°47'4 8.0
2017-Dec-12 15:00N 55°17' E 012°41'3 6.7
2017-Dec-12 14:30N 55°20' E 012°37'4 8.2
2017-Dec-12 14:00N 55°24' E 012°39'4 8.5
2017-Dec-12 13:30N 55°28' E 012°40'4 8.5
2017-Dec-12 13:00N 55°32' E 012°42'510.8
2017-Dec-12 12:30N 55°37' E 012°42'510.7
2017-Dec-12 12:00N 55°43' E 012°41'510.7
2017-Dec-12 11:30N 55°48' E 012°40'5 9.0
2017-Dec-12 11:00N 55°52' E 012°38'5 9.0
2017-Dec-12 10:30N 55°57' E 012°38'5 9.2
2017-Dec-12 10:00N 56°01' E 012°38'4 8.3
2017-Dec-12 09:30N 56°05' E 012°35'4 8.9
2017-Dec-12 09:00N 56°08' E 012°29'4 8.8
2017-Dec-12 08:30N 56°10' E 012°22'5 9.1
2017-Dec-12 08:00N 56°13' E 012°15'63 8.8
2017-Dec-12 00:48N 57°12' E 011°34'3 9.2
2017-Dec-12 00:30N 57°15' E 011°32'5 9.5
2017-Dec-12 00:00N 57°19' E 011°30'5 9.4
2017-Dec-11 23:30N 57°24' E 011°27'5 9.1
2017-Dec-11 23:00N 57°28' E 011°24'5 9.3
2017-Dec-11 22:30N 57°31' E 011°18'5 9.1
2017-Dec-11 22:00N 57°34' E 011°11'5 9.1
2017-Dec-11 21:30N 57°37' E 011°05'5 9.2
2017-Dec-11 21:00N 57°40' E 010°59'5 9.1
2017-Dec-11 20:30N 57°43' E 010°52'5 9.2
2017-Dec-11 20:00N 57°47' E 010°46'4 8.0
2017-Dec-11 19:30N 57°48' E 010°39'5 9.1
2017-Dec-11 19:00N 57°48' E 010°30'112 8.7
2017-Dec-11 06:11N 56°45' E 007°39'210.3
2017-Dec-11 06:00N 56°44' E 007°37'611.1
2017-Dec-11 05:30N 56°39' E 007°31'3 6.2
2017-Dec-11 04:59N 56°36' E 007°28'510.0
2017-Dec-11 04:29N 56°32' E 007°24'511.1
2017-Dec-11 04:00N 56°27' E 007°18'33310.1
2017-Dec-09 19:06N 51°41' E 002°31'112.2
2017-Dec-09 19:00N 51°40' E 002°30'712.3
2017-Dec-09 18:24N 51°34' E 002°22'612.3
2017-Dec-09 17:55N 51°29' E 002°16'512.3
2017-Dec-09 17:30N 51°25' E 002°12'612.3
2017-Dec-09 17:00N 51°20' E 002°08'612.3
2017-Dec-09 16:30N 51°14' E 002°03'612.9
2017-Dec-09 16:00N 51°11' E 001°54'613.0
2017-Dec-09 15:30N 51°08' E 001°45'612.8
2017-Dec-09 15:00N 51°03' E 001°38'612.3
2017-Dec-09 14:30N 50°59' E 001°31'15610.3
2017-Dec-08 23:22N 49°55' W 002°12'613.3
2017-Dec-08 22:53N 49°53' W 002°21'117 8.1
2017-Dec-08 08:30N 48°59' W 004°60'510.9
2017-Dec-08 08:00N 48°56' W 005°07'1011.3
2017-Dec-08 07:07N 48°51' W 005°20'211.5
2017-Dec-08 06:59N 48°50' W 005°22'511.4
2017-Dec-08 06:30N 48°47' W 005°29'910.5
2017-Dec-08 05:38N 48°41' W 005°38'  

Dump ship's entire track history